Time;durP1;ratioP1;P1;durP2;ratioP2;P2;SDS_P1;SDS_P2;PMS_P1;PMS_P2;Temp;Humidity;BMP_temperature;BMP_pressure;BME280_temperature;BME280_humidity;BME280_pressure;Samples;Min_cycle;Max_cycle;Signal;HPM_P1;HPM_P2
2022/07/31 00:02:24;;;;;;;3.75;2.20;;;20.50;77.80;;;;;;5069939;28;20044;-43
2022/07/31 00:04:52;;;;;;;6.95;2.75;;;20.50;77.80;;;;;;5058532;28;20532;-43
2022/07/31 00:07:18;;;;;;;8.10;2.42;;;20.40;78.30;;;;;;5049431;28;20123;-42
2022/07/31 00:09:45;;;;;;;4.50;2.92;;;20.40;78.50;;;;;;5061291;28;20067;-43
2022/07/31 00:12:12;;;;;;;5.75;3.00;;;20.40;78.90;;;;;;5057020;28;20076;-42
2022/07/31 00:14:39;;;;;;;4.30;2.45;;;20.30;79.20;;;;;;5063124;28;20119;-43
2022/07/31 00:17:05;;;;;;;3.72;2.42;;;20.20;79.50;;;;;;5051880;28;20083;-42
2022/07/31 00:19:32;;;;;;;4.95;2.78;;;20.20;79.50;;;;;;5046309;28;20049;-42
2022/07/31 00:22:00;;;;;;;6.28;2.55;;;20.10;79.70;;;;;;5051917;28;20492;-43
2022/07/31 00:24:28;;;;;;;4.88;2.67;;;20.10;80.00;;;;;;5047245;28;20587;-43
2022/07/31 00:26:55;;;;;;;6.88;3.00;;;20.10;79.90;;;;;;5051059;28;20488;-43
2022/07/31 00:29:22;;;;;;;5.38;2.30;;;20.00;79.90;;;;;;5069985;28;20087;-43
2022/07/31 00:31:49;;;;;;;4.43;2.38;;;19.90;79.70;;;;;;5071241;28;20048;-42
2022/07/31 00:34:15;;;;;;;4.45;2.33;;;20.00;80.00;;;;;;5061451;28;20044;-42
2022/07/31 00:36:42;;;;;;;4.05;2.33;;;19.90;80.30;;;;;;5072225;28;20129;-43
2022/07/31 00:39:10;;;;;;;5.95;2.80;;;19.90;80.10;;;;;;5052608;28;20186;-43
2022/07/31 00:41:38;;;;;;;7.07;2.65;;;19.90;80.40;;;;;;5063015;28;20124;-42
2022/07/31 00:44:05;;;;;;;7.30;2.70;;;19.90;80.50;;;;;;5048790;28;20051;-42
2022/07/31 00:46:32;;;;;;;5.70;2.63;;;19.90;80.60;;;;;;5052737;28;20048;-43
2022/07/31 00:48:59;;;;;;;6.97;2.78;;;19.80;80.90;;;;;;5062964;28;20068;-43
2022/07/31 00:51:25;;;;;;;6.88;2.70;;;19.80;81.10;;;;;;5063965;28;20459;-42
2022/07/31 00:53:52;;;;;;;5.82;2.50;;;19.80;81.20;;;;;;5067005;28;20488;-43
2022/07/31 00:56:20;;;;;;;6.70;2.78;;;19.80;81.30;;;;;;5062411;28;20053;-43
2022/07/31 00:58:47;;;;;;;6.57;2.70;;;19.70;81.40;;;;;;5049141;28;20128;-43
2022/07/31 01:01:14;;;;;;;4.15;2.53;;;19.70;81.50;;;;;;5057232;28;20044;-42
2022/07/31 01:03:40;;;;;;;3.42;2.40;;;19.70;81.80;;;;;;5060701;28;20045;-42
2022/07/31 01:06:08;;;;;;;7.82;2.90;;;19.70;81.40;;;;;;5063439;28;20071;-42
2022/07/31 01:08:34;;;;;;;8.75;3.13;;;19.70;81.50;;;;;;5072612;28;20048;-41
2022/07/31 01:11:04;;;;;;;7.10;2.67;;;19.70;81.60;;;;;;5074672;28;20103;-43
2022/07/31 01:13:35;;;;;;;5.68;2.60;;;19.70;81.60;;;;;;5050533;28;20124;-42
2022/07/31 01:16:02;;;;;;;3.65;2.42;;;19.70;81.70;;;;;;5049298;28;20051;-42
2022/07/31 01:18:31;;;;;;;5.97;2.97;;;19.70;81.40;;;;;;5072211;28;20044;-43
2022/07/31 01:20:58;;;;;;;4.40;2.45;;;19.70;81.70;;;;;;5071365;28;20072;-43
2022/07/31 01:23:37;;;;;;;8.32;2.70;;;19.70;81.50;;;;;;5069613;28;20484;-43
2022/07/31 01:26:08;;;;;;;11.02;2.50;;;19.70;81.90;;;;;;5068378;28;20064;-43
2022/07/31 01:28:48;;;;;;;4.90;2.83;;;19.70;81.90;;;;;;5074614;28;20080;-43
2022/07/31 01:31:19;;;;;;;5.07;2.83;;;19.70;81.80;;;;;;5065133;28;20447;-44
2022/07/31 01:33:48;;;;;;;7.63;3.38;;;19.60;82.00;;;;;;5053899;28;20069;-43
2022/07/31 01:36:17;;;;;;;6.85;3.33;;;19.60;82.40;;;;;;5062790;28;20075;-42
2022/07/31 01:38:45;;;;;;;8.57;2.90;;;19.60;82.50;;;;;;5069301;28;20048;-42
2022/07/31 01:41:13;;;;;;;13.68;3.05;;;19.50;82.40;;;;;;5072777;28;20102;-43
2022/07/31 01:43:42;;;;;;;7.05;3.30;;;19.50;83.20;;;;;;5057892;28;20055;-43
2022/07/31 01:46:10;;;;;;;9.18;3.63;;;19.50;82.80;;;;;;5054931;28;20131;-43
2022/07/31 01:48:37;;;;;;;7.05;3.15;;;19.50;82.90;;;;;;5058457;28;20050;-43
2022/07/31 01:51:04;;;;;;;7.28;3.13;;;19.50;83.00;;;;;;5066010;28;20411;-42
2022/07/31 01:53:31;;;;;;;6.55;3.50;;;19.50;82.80;;;;;;5070204;28;20043;-42
2022/07/31 01:55:57;;;;;;;10.23;3.45;;;19.50;83.10;;;;;;5068150;28;20053;-42
2022/07/31 01:58:25;;;;;;;10.85;3.42;;;19.50;83.10;;;;;;5053003;28;20055;-42
2022/07/31 02:00:55;;;;;;;10.27;3.40;;;19.50;83.30;;;;;;5066365;28;20385;-41
2022/07/31 02:03:22;;;;;;;6.10;3.40;;;19.50;83.40;;;;;;5071652;28;20084;-42
2022/07/31 02:05:49;;;;;;;5.00;3.17;;;19.40;83.60;;;;;;5058133;28;20128;-42
2022/07/31 02:08:16;;;;;;;6.38;3.80;;;19.40;83.40;;;;;;5068023;28;20102;-42
2022/07/31 02:10:43;;;;;;;7.50;4.05;;;19.40;83.70;;;;;;5056145;28;20546;-42
2022/07/31 02:13:10;;;;;;;6.65;3.63;;;19.40;83.90;;;;;;5071045;28;20106;-43
2022/07/31 02:15:37;;;;;;;5.97;3.22;;;19.40;83.80;;;;;;5071427;28;20123;-42
2022/07/31 02:18:05;;;;;;;5.63;3.80;;;19.40;83.40;;;;;;5053924;28;20127;-43
2022/07/31 02:20:31;;;;;;;8.73;4.13;;;19.40;83.80;;;;;;5054138;28;20120;-42
2022/07/31 02:23:00;;;;;;;11.93;4.03;;;19.40;84.20;;;;;;5074518;28;20036;-42
2022/07/31 02:25:27;;;;;;;6.60;3.58;;;19.40;84.20;;;;;;5047365;28;20044;-42
2022/07/31 02:27:53;;;;;;;6.88;3.90;;;19.40;84.60;;;;;;5061513;28;20091;-43
2022/07/31 02:30:20;;;;;;;3.80;3.05;;;19.40;83.90;;;;;;5069380;28;20044;-42
2022/07/31 02:32:47;;;;;;;7.65;4.10;;;19.40;83.50;;;;;;5064271;28;20540;-43
2022/07/31 02:35:16;;;;;;;12.68;4.40;;;19.40;83.80;;;;;;5063257;28;20129;-42
2022/07/31 02:37:43;;;;;;;4.68;3.67;;;19.40;84.20;;;;;;5073314;28;20044;-41
2022/07/31 02:40:10;;;;;;;7.50;4.30;;;19.40;84.30;;;;;;5070458;28;20036;-42
2022/07/31 02:42:37;;;;;;;6.18;4.18;;;19.40;84.80;;;;;;5052384;28;20093;-43
2022/07/31 02:45:04;;;;;;;5.55;3.38;;;19.40;85.20;;;;;;5053624;28;20039;-42
2022/07/31 02:47:31;;;;;;;7.93;4.80;;;19.30;85.00;;;;;;5062255;28;20044;-42
2022/07/31 02:49:58;;;;;;;6.18;4.43;;;19.30;85.30;;;;;;5056500;28;20051;-42
2022/07/31 02:52:26;;;;;;;6.63;4.22;;;19.30;85.50;;;;;;5064040;28;20244;-41
2022/07/31 02:54:53;;;;;;;7.07;4.50;;;19.30;85.40;;;;;;5072771;28;20036;-41
2022/07/31 02:57:23;;;;;;;7.65;4.65;;;19.30;85.60;;;;;;5067693;28;20048;-42
2022/07/31 02:59:50;;;;;;;7.88;4.38;;;19.30;86.20;;;;;;5066824;28;20047;-42
2022/07/31 03:02:16;;;;;;;8.95;4.88;;;19.30;86.20;;;;;;5072444;28;20080;-42
2022/07/31 03:04:43;;;;;;;6.35;4.40;;;19.20;86.30;;;;;;5060938;28;20124;-42
2022/07/31 03:07:10;;;;;;;7.20;4.60;;;19.20;86.20;;;;;;5066276;28;20036;-42
2022/07/31 03:09:38;;;;;;;9.55;5.05;;;19.20;86.40;;;;;;5068533;28;20041;-42
2022/07/31 03:12:06;;;;;;;7.40;4.75;;;19.20;86.70;;;;;;5052317;28;20492;-42
2022/07/31 03:14:33;;;;;;;6.18;4.50;;;19.20;86.80;;;;;;5060301;28;20075;-43
2022/07/31 03:16:59;;;;;;;7.43;4.88;;;19.10;86.90;;;;;;5065500;28;20042;-42
2022/07/31 03:19:26;;;;;;;6.45;4.70;;;19.10;87.10;;;;;;5064499;28;20456;-43
2022/07/31 03:21:53;;;;;;;6.38;4.75;;;19.10;86.90;;;;;;5053903;28;20041;-42
2022/07/31 03:24:20;;;;;;;7.97;4.40;;;19.20;87.00;;;;;;5052657;28;20049;-40
2022/07/31 03:26:48;;;;;;;7.47;4.88;;;19.10;87.30;;;;;;5066159;28;20132;-42
2022/07/31 03:29:14;;;;;;;9.88;4.75;;;19.10;87.40;;;;;;5050535;28;20131;-42
2022/07/31 03:31:41;;;;;;;10.00;4.43;;;19.10;87.60;;;;;;5067755;28;20140;-42
2022/07/31 03:34:08;;;;;;;4.85;4.28;;;19.10;87.70;;;;;;5057977;28;20068;-42
2022/07/31 03:36:35;;;;;;;9.07;4.53;;;19.00;87.70;;;;;;5070558;28;20080;-42
2022/07/31 03:39:01;;;;;;;7.20;4.10;;;19.00;87.80;;;;;;5072201;28;20080;-42
2022/07/31 03:41:28;;;;;;;11.13;4.22;;;19.00;88.10;;;;;;5065548;28;20073;-41
2022/07/31 03:43:56;;;;;;;11.15;4.05;;;19.00;88.10;;;;;;5063499;28;20484;-42
2022/07/31 03:46:23;;;;;;;5.38;3.10;;;19.00;87.80;;;;;;5051597;28;20512;-41
2022/07/31 03:48:50;;;;;;;4.85;3.92;;;18.90;87.50;;;;;;5065193;28;20119;-42
2022/07/31 03:51:17;;;;;;;7.28;4.13;;;19.00;87.70;;;;;;5050773;28;20068;-42
2022/07/31 03:53:44;;;;;;;10.13;4.63;;;19.00;87.80;;;;;;5053203;28;20045;-42
2022/07/31 03:56:11;;;;;;;6.70;3.78;;;19.00;88.10;;;;;;5064000;28;20536;-42
2022/07/31 03:58:38;;;;;;;9.07;4.43;;;19.00;87.80;;;;;;5055882;28;20123;-42
2022/07/31 04:01:06;;;;;;;6.32;4.25;;;18.90;88.00;;;;;;5058194;28;20111;-42
2022/07/31 04:03:33;;;;;;;7.00;4.25;;;18.90;88.20;;;;;;5065950;28;20129;-42
2022/07/31 04:06:02;;;;;;;6.20;3.80;;;18.90;88.60;;;;;;5043302;28;20191;-43
2022/07/31 04:08:28;;;;;;;5.50;3.33;;;19.00;88.70;;;;;;5055146;28;20048;-43
2022/07/31 04:10:55;;;;;;;8.35;4.43;;;19.00;88.20;;;;;;5058339;28;20072;-43
2022/07/31 04:13:22;;;;;;;4.80;3.65;;;18.90;88.30;;;;;;5067507;28;20044;-43
2022/07/31 04:15:48;;;;;;;6.68;4.00;;;18.90;87.90;;;;;;5058319;28;20123;-42
2022/07/31 04:18:17;;;;;;;7.25;3.85;;;19.00;88.00;;;;;;5070290;28;20123;-42
2022/07/31 04:20:46;;;;;;;8.48;3.88;;;19.00;87.60;;;;;;5065830;28;20130;-42
2022/07/31 04:23:13;;;;;;;7.25;4.57;;;19.10;87.50;;;;;;5065622;28;20044;-43
2022/07/31 04:25:40;;;;;;;12.73;4.45;;;19.00;87.90;;;;;;5060143;28;20135;-43
2022/07/31 04:28:06;;;;;;;8.85;3.90;;;19.10;88.00;;;;;;5061157;28;20507;-43
2022/07/31 04:30:33;;;;;;;5.75;3.80;;;19.10;87.90;;;;;;5063198;28;20044;-43
2022/07/31 04:33:00;;;;;;;7.63;4.20;;;19.10;88.00;;;;;;5052055;28;20491;-41
2022/07/31 04:35:28;;;;;;;4.22;3.80;;;19.10;88.20;;;;;;5043311;28;20115;-43
2022/07/31 04:37:55;;;;;;;4.65;4.00;;;19.10;88.40;;;;;;5059553;28;20123;-43
2022/07/31 04:40:22;;;;;;;5.47;4.05;;;19.10;88.30;;;;;;5055565;28;20485;-42
2022/07/31 04:42:48;;;;;;;5.68;3.70;;;19.10;88.10;;;;;;5051611;28;20453;-43
2022/07/31 04:45:15;;;;;;;6.50;4.50;;;19.10;88.20;;;;;;5057213;28;20544;-43
2022/07/31 04:47:42;;;;;;;5.28;4.22;;;19.20;88.50;;;;;;5071546;28;20135;-42
2022/07/31 04:50:09;;;;;;;7.13;4.93;;;19.10;88.50;;;;;;5071328;28;20083;-42
2022/07/31 04:52:37;;;;;;;12.05;4.22;;;19.20;88.80;;;;;;5069334;28;20450;-41
2022/07/31 04:55:04;;;;;;;6.40;3.72;;;19.20;88.70;;;;;;5066691;28;20067;-41
2022/07/31 04:57:31;;;;;;;8.48;4.47;;;19.20;88.40;;;;;;5052231;28;20077;-42
2022/07/31 04:59:58;;;;;;;8.13;5.05;;;19.20;88.70;;;;;;5050736;28;20392;-42
2022/07/31 05:02:25;;;;;;;8.75;4.55;;;19.10;89.10;;;;;;5054648;28;20465;-42
2022/07/31 05:04:51;;;;;;;8.77;4.93;;;19.20;89.40;;;;;;5063036;28;20045;-41
2022/07/31 05:07:18;;;;;;;9.32;5.25;;;19.20;89.40;;;;;;5065237;28;20124;-42
2022/07/31 05:09:46;;;;;;;16.10;5.30;;;19.20;89.40;;;;;;5072216;28;20052;-42
2022/07/31 05:12:13;;;;;;;7.45;4.18;;;19.20;89.90;;;;;;5034525;28;20128;-42
2022/07/31 05:14:40;;;;;;;8.13;4.03;;;19.20;89.60;;;;;;5061952;28;20061;-43
2022/07/31 05:17:07;;;;;;;7.82;4.47;;;19.20;89.60;;;;;;5050058;28;20111;-43
2022/07/31 05:19:33;;;;;;;10.95;4.88;;;19.20;89.80;;;;;;5067925;28;20102;-43
2022/07/31 05:22:00;;;;;;;8.98;4.70;;;19.30;90.10;;;;;;5069952;28;20052;-43
2022/07/31 05:24:27;;;;;;;9.57;5.20;;;19.30;90.10;;;;;;5048594;28;20077;-43
2022/07/31 05:26:55;;;;;;;9.55;5.07;;;19.30;90.20;;;;;;5059751;28;20092;-43
2022/07/31 05:29:22;;;;;;;7.95;4.90;;;19.30;90.30;;;;;;5060112;28;20049;-43
2022/07/31 05:31:49;;;;;;;9.45;5.43;;;19.40;90.40;;;;;;5047045;28;20068;-42
2022/07/31 05:34:15;;;;;;;12.48;5.53;;;19.40;90.40;;;;;;5050536;28;20040;-43
2022/07/31 05:36:42;;;;;;;9.82;4.95;;;19.40;90.40;;;;;;5061023;28;20117;-42
2022/07/31 05:39:11;;;;;;;8.63;5.00;;;19.40;90.50;;;;;;5069229;28;20069;-42
2022/07/31 05:41:37;;;;;;;6.10;4.85;;;19.40;90.60;;;;;;5062439;28;20384;-41
2022/07/31 05:44:06;;;;;;;7.97;5.22;;;19.40;90.50;;;;;;5058454;28;20455;-42
2022/07/31 05:46:32;;;;;;;7.22;5.43;;;19.50;90.50;;;;;;5055228;28;20116;-43
2022/07/31 05:48:59;;;;;;;9.13;5.30;;;19.50;90.90;;;;;;5056033;28;20044;-42
2022/07/31 05:51:26;;;;;;;10.05;5.68;;;19.50;90.60;;;;;;5055269;28;20140;-42
2022/07/31 05:53:52;;;;;;;11.40;5.88;;;19.60;90.70;;;;;;5034269;28;20051;-42
2022/07/31 05:56:19;;;;;;;13.60;6.20;;;19.50;90.60;;;;;;5061895;28;20407;-43
2022/07/31 05:58:46;;;;;;;11.18;5.93;;;19.60;90.80;;;;;;5061621;28;20086;-43
2022/07/31 06:01:14;;;;;;;10.98;5.97;;;19.60;90.90;;;;;;5051780;28;20358;-42
2022/07/31 06:03:41;;;;;;;8.98;6.35;;;19.60;90.90;;;;;;5061461;28;20127;-42
2022/07/31 06:06:08;;;;;;;12.60;4.97;;;19.60;90.90;;;;;;5059146;28;20372;-42
2022/07/31 06:08:35;;;;;;;9.20;5.90;;;19.60;90.90;;;;;;5057816;28;20087;-43
2022/07/31 06:11:02;;;;;;;10.93;5.35;;;19.60;91.00;;;;;;5039946;28;20041;-42
2022/07/31 06:13:29;;;;;;;9.45;6.20;;;19.70;91.10;;;;;;5047370;28;20045;-43
2022/07/31 06:15:56;;;;;;;8.98;5.30;;;19.70;91.20;;;;;;5053157;28;20051;-43
2022/07/31 06:18:24;;;;;;;13.27;6.30;;;19.70;91.20;;;;;;5067659;28;20051;-41
2022/07/31 06:20:51;;;;;;;10.35;6.18;;;19.80;91.20;;;;;;5049210;28;20044;-43
2022/07/31 06:23:17;;;;;;;10.48;5.25;;;19.80;91.10;;;;;;5068423;28;21267;-43
2022/07/31 06:25:44;;;;;;;9.45;5.72;;;19.80;91.30;;;;;;5063979;28;20456;-43
2022/07/31 06:28:11;;;;;;;12.82;5.95;;;19.80;91.10;;;;;;5054029;28;20049;-43
2022/07/31 06:30:38;;;;;;;9.98;5.85;;;19.90;91.20;;;;;;5054815;28;20083;-42
2022/07/31 06:33:05;;;;;;;14.20;6.07;;;20.00;91.20;;;;;;5049389;28;20100;-43
2022/07/31 06:35:33;;;;;;;14.90;7.05;;;20.00;91.30;;;;;;5048492;28;20450;-42
2022/07/31 06:38:00;;;;;;;14.25;6.47;;;20.10;91.40;;;;;;5048425;28;20045;-41
2022/07/31 06:40:26;;;;;;;9.88;5.88;;;20.10;91.20;;;;;;5048291;28;20072;-43
2022/07/31 06:42:53;;;;;;;12.48;6.53;;;20.20;91.40;;;;;;5052816;28;20124;-42
2022/07/31 06:45:20;;;;;;;11.52;5.85;;;20.30;91.00;;;;;;5051707;28;20356;-42
2022/07/31 06:47:47;;;;;;;11.95;6.35;;;20.30;91.00;;;;;;5051441;28;20048;-42
2022/07/31 06:50:14;;;;;;;10.52;5.93;;;20.30;91.00;;;;;;5052926;28;20557;-42
2022/07/31 06:52:42;;;;;;;8.38;6.30;;;20.40;91.00;;;;;;5073035;28;20076;-42
2022/07/31 06:55:09;;;;;;;10.93;6.28;;;20.40;91.10;;;;;;5049749;28;20132;-42
2022/07/31 06:57:36;;;;;;;9.73;6.15;;;20.50;91.00;;;;;;5061268;28;20123;-42
2022/07/31 07:00:04;;;;;;;7.72;5.72;;;20.50;90.80;;;;;;5041659;28;20597;-43
2022/07/31 07:02:31;;;;;;;12.07;6.38;;;20.50;90.80;;;;;;5062289;28;20431;-42
2022/07/31 07:04:58;;;;;;;9.98;6.43;;;20.60;90.80;;;;;;5053844;28;20041;-42
2022/07/31 07:07:24;;;;;;;11.60;6.40;;;20.60;90.70;;;;;;5052425;28;20084;-43
2022/07/31 07:09:53;;;;;;;9.73;6.90;;;20.60;90.70;;;;;;5061197;28;20048;-43
2022/07/31 07:12:19;;;;;;;10.63;6.32;;;20.60;90.60;;;;;;5065340;28;20124;-43
2022/07/31 07:14:46;;;;;;;8.95;7.07;;;20.70;90.50;;;;;;5052771;28;20132;-43
2022/07/31 07:17:13;;;;;;;8.65;6.20;;;20.70;90.50;;;;;;5049726;28;20083;-44
2022/07/31 07:19:40;;;;;;;9.93;6.60;;;20.70;90.50;;;;;;5053774;28;20136;-43
2022/07/31 07:22:07;;;;;;;8.65;6.57;;;20.60;90.40;;;;;;5052608;28;20040;-43
2022/07/31 07:24:34;;;;;;;8.93;6.53;;;20.70;90.50;;;;;;5055196;28;20036;-43
2022/07/31 07:27:02;;;;;;;8.20;6.53;;;20.70;90.50;;;;;;5054003;28;20116;-43
2022/07/31 07:29:29;;;;;;;11.20;6.50;;;20.70;90.70;;;;;;5045593;28;20059;-43
2022/07/31 07:31:56;;;;;;;10.98;6.38;;;20.80;90.60;;;;;;5041626;28;20045;-43
2022/07/31 07:34:23;;;;;;;12.75;6.25;;;20.80;90.70;;;;;;5057118;28;20544;-43
2022/07/31 07:36:49;;;;;;;9.75;6.43;;;20.90;90.70;;;;;;5053389;28;20480;-43
2022/07/31 07:39:16;;;;;;;11.85;6.70;;;21.00;90.70;;;;;;5051563;28;20473;-43
2022/07/31 07:41:43;;;;;;;15.43;7.20;;;21.00;90.70;;;;;;5049394;28;20041;-44
2022/07/31 07:44:11;;;;;;;10.85;7.15;;;21.10;90.70;;;;;;5060613;28;20068;-43
2022/07/31 07:46:38;;;;;;;11.23;7.40;;;21.20;90.70;;;;;;5041980;28;20045;-43
2022/07/31 07:49:05;;;;;;;8.70;6.70;;;21.20;90.70;;;;;;5047489;28;20049;-43
2022/07/31 07:51:32;;;;;;;9.02;7.28;;;21.20;90.70;;;;;;5068203;28;20044;-44
2022/07/31 07:54:00;;;;;;;10.15;7.57;;;21.40;90.90;;;;;;5048932;28;20128;-43
2022/07/31 07:56:26;;;;;;;10.15;7.72;;;21.40;90.80;;;;;;5060448;28;20110;-43
2022/07/31 07:58:54;;;;;;;10.93;6.82;;;21.40;90.80;;;;;;5063408;28;20092;-42
2022/07/31 08:01:22;;;;;;;14.25;7.50;;;21.40;90.90;;;;;;5064158;28;20041;-42
2022/07/31 08:03:49;;;;;;;12.63;7.80;;;21.50;91.00;;;;;;5051068;28;20461;-43
2022/07/31 08:06:16;;;;;;;13.02;7.50;;;21.50;91.00;;;;;;5052685;28;20040;-42
2022/07/31 08:08:42;;;;;;;11.02;7.68;;;21.60;91.10;;;;;;5049118;28;20129;-42
2022/07/31 08:14:26;;;;;;;14.70;8.38;;;21.60;91.00;;;;;;5061727;28;20040;-42
2022/07/31 08:16:54;;;;;;;9.75;7.45;;;21.70;90.90;;;;;;5050382;28;20041;-43
2022/07/31 08:19:21;;;;;;;11.60;7.90;;;21.70;90.90;;;;;;5051518;28;20053;-43
2022/07/31 08:21:47;;;;;;;10.85;7.20;;;21.80;91.00;;;;;;5059327;28;20048;-42
2022/07/31 08:24:15;;;;;;;16.25;7.78;;;21.90;91.10;;;;;;5057971;28;20135;-43
2022/07/31 08:29:26;;;;;;;10.50;7.82;;;22.00;91.40;;;;;;5038671;28;20073;-42
2022/07/31 08:31:55;;;;;;;16.85;7.18;;;22.20;91.20;;;;;;5053014;28;20037;-42
2022/07/31 08:34:22;;;;;;;12.82;7.53;;;22.20;91.00;;;;;;5051464;28;20441;-42
2022/07/31 08:36:49;;;;;;;12.52;7.28;;;22.20;90.90;;;;;;5051902;28;20049;-42
2022/07/31 08:39:15;;;;;;;10.55;6.68;;;22.30;91.00;;;;;;5051288;28;20079;-42
2022/07/31 08:41:42;;;;;;;11.63;7.18;;;22.40;91.10;;;;;;5050935;28;20564;-42
2022/07/31 08:44:09;;;;;;;11.07;6.60;;;22.50;91.00;;;;;;5054547;28;20084;-43
2022/07/31 08:46:37;;;;;;;11.07;7.05;;;22.50;90.90;;;;;;5060311;28;20545;-42
2022/07/31 08:49:08;;;;;;;11.07;7.38;;;22.50;90.90;;;;;;5051935;28;20477;-43
2022/07/31 08:51:36;;;;;;;15.37;7.27;;;22.50;91.10;;;;;;5052469;28;20056;-42
2022/07/31 08:54:05;;;;;;;9.98;6.88;;;22.50;91.30;;;;;;5052217;28;20132;-43
2022/07/31 08:56:34;;;;;;;8.95;6.70;;;22.40;91.60;;;;;;5049300;28;20140;-42
2022/07/31 08:59:00;;;;;;;10.23;6.93;;;22.40;91.80;;;;;;5051352;28;20045;-42
2022/07/31 09:01:27;;;;;;;14.68;7.40;;;22.40;92.10;;;;;;5056036;28;20136;-42
2022/07/31 09:03:54;;;;;;;11.63;7.20;;;22.40;92.50;;;;;;5055987;28;20045;-42
2022/07/31 09:06:22;;;;;;;12.50;7.63;;;22.40;92.90;;;;;;5057713;28;20072;-43
2022/07/31 09:08:49;;;;;;;17.10;8.35;;;22.30;93.40;;;;;;5047513;28;20051;-42
2022/07/31 09:11:17;;;;;;;18.08;7.53;;;22.20;93.40;;;;;;5051214;28;20080;-43
2022/07/31 09:13:52;;;;;;;11.45;6.90;;;22.20;93.80;;;;;;5053214;28;20041;-44
2022/07/31 09:16:19;;;;;;;10.60;7.90;;;22.10;93.90;;;;;;5054817;28;20128;-42
2022/07/31 09:18:55;;;;;;;14.52;7.72;;;22.10;94.20;;;;;;5065912;28;20091;-41
2022/07/31 09:21:23;;;;;;;14.68;7.97;;;22.10;94.40;;;;;;5049513;28;20046;-42
2022/07/31 09:23:49;;;;;;;9.43;6.28;;;22.00;94.70;;;;;;5046001;28;20179;-44
2022/07/31 09:26:16;;;;;;;9.80;6.57;;;22.00;94.70;;;;;;5044951;28;20038;-45
2022/07/31 09:28:44;;;;;;;12.75;8.05;;;22.00;94.70;;;;;;5048893;28;20091;-44
2022/07/31 09:31:12;;;;;;;10.45;7.63;;;22.00;95.00;;;;;;5045941;28;20080;-44
2022/07/31 09:33:42;;;;;;;12.52;7.78;;;22.00;95.30;;;;;;5054446;28;20053;-44
2022/07/31 09:36:09;;;;;;;12.75;8.00;;;22.00;95.70;;;;;;5068262;28;20052;-44
2022/07/31 09:38:39;;;;;;;13.27;8.05;;;21.90;96.00;;;;;;5037439;28;20048;-44
2022/07/31 09:41:10;;;;;;;15.40;8.55;;;21.90;96.30;;;;;;5042770;28;20045;-43
2022/07/31 09:43:37;;;;;;;13.23;8.38;;;21.90;96.50;;;;;;5048270;28;20057;-43
2022/07/31 09:46:04;;;;;;;11.88;8.00;;;21.90;96.70;;;;;;5054145;28;20041;-43
2022/07/31 09:48:31;;;;;;;15.48;8.55;;;21.80;96.70;;;;;;5050156;28;20116;-43
2022/07/31 09:50:58;;;;;;;16.00;9.18;;;21.90;97.20;;;;;;5053573;28;20048;-43
2022/07/31 09:53:25;;;;;;;12.80;8.60;;;21.90;97.40;;;;;;5062401;28;20107;-43
2022/07/31 09:55:54;;;;;;;14.07;9.13;;;21.90;97.60;;;;;;5069375;28;20072;-43
2022/07/31 09:58:21;;;;;;;15.43;8.77;;;21.90;97.80;;;;;;5059005;28;20048;-43
2022/07/31 10:00:49;;;;;;;14.63;9.82;;;21.90;97.90;;;;;;5056294;28;20037;-43
2022/07/31 10:03:17;;;;;;;13.38;9.23;;;21.80;98.00;;;;;;5054532;28;20128;-43
2022/07/31 10:05:44;;;;;;;14.65;9.35;;;21.80;98.30;;;;;;5059596;28;20044;-44
2022/07/31 10:08:13;;;;;;;12.48;7.80;;;21.80;98.40;;;;;;5053074;28;20524;-44
2022/07/31 10:10:39;;;;;;;14.75;9.90;;;21.70;98.50;;;;;;5054962;28;20487;-43
2022/07/31 10:13:08;;;;;;;16.00;9.90;;;21.70;98.80;;;;;;5054282;28;20480;-43
2022/07/31 10:15:36;;;;;;;13.75;9.60;;;21.80;99.00;;;;;;5057947;28;20143;-43
2022/07/31 10:18:04;;;;;;;12.20;9.57;;;21.80;99.10;;;;;;5054164;28;20044;-43
2022/07/31 10:20:31;;;;;;;14.80;9.65;;;21.80;99.30;;;;;;5053909;28;20405;-44
2022/07/31 10:23:01;;;;;;;11.13;8.73;;;21.70;99.40;;;;;;5062211;28;20519;-44
2022/07/31 10:25:28;;;;;;;13.13;9.30;;;21.70;99.40;;;;;;5053627;28;20083;-45
2022/07/31 10:27:55;;;;;;;11.25;8.57;;;21.70;99.50;;;;;;5056606;28;20447;-45
2022/07/31 10:30:24;;;;;;;10.55;9.50;;;21.70;99.70;;;;;;5051726;28;20067;-44
2022/07/31 10:32:51;;;;;;;13.63;8.70;;;21.70;99.50;;;;;;5050967;28;20088;-43
2022/07/31 10:35:18;;;;;;;11.98;9.20;;;21.70;99.50;;;;;;5048171;28;20103;-43
2022/07/31 10:37:48;;;;;;;12.00;9.43;;;21.70;99.70;;;;;;5039350;28;20041;-43
2022/07/31 10:40:21;;;;;;;12.60;9.32;;;21.70;99.80;;;;;;5046152;28;20080;-45
2022/07/31 10:43:01;;;;;;;14.15;9.75;;;21.70;99.80;;;;;;5048716;28;20476;-43
2022/07/31 10:45:32;;;;;;;14.10;9.48;;;21.70;99.90;;;;;;5057799;28;20053;-43
2022/07/31 10:48:01;;;;;;;12.57;9.85;;;21.60;99.80;;;;;;5049555;28;20121;-43
2022/07/31 10:50:29;;;;;;;13.80;10.70;;;21.70;99.90;;;;;;5051516;28;20124;-43
2022/07/31 10:53:06;;;;;;;12.05;10.48;;;21.70;99.90;;;;;;5042535;28;20052;-43
2022/07/31 10:55:34;;;;;;;10.05;7.80;;;21.70;99.90;;;;;;5052256;28;20052;-44
2022/07/31 10:58:07;;;;;;;11.77;8.95;;;21.70;99.90;;;;;;5050131;28;20045;-43
2022/07/31 11:00:35;;;;;;;14.13;10.40;;;21.70;99.90;;;;;;5051420;28;20127;-44
2022/07/31 11:03:13;;;;;;;13.95;10.27;;;21.70;99.80;;;;;;5052185;28;20041;-43
2022/07/31 11:05:39;;;;;;;14.30;10.48;;;21.60;99.70;;;;;;5051134;28;20136;-44
2022/07/31 11:08:07;;;;;;;16.08;10.50;;;21.50;99.90;;;;;;5060156;28;20098;-44
2022/07/31 11:10:34;;;;;;;12.18;10.45;;;21.40;99.90;;;;;;5052512;28;20060;-44
2022/07/31 11:13:01;;;;;;;13.55;9.63;;;21.30;99.90;;;;;;5067031;28;20516;-44
2022/07/31 11:15:28;;;;;;;13.07;10.48;;;21.30;99.90;;;;;;5065224;28;20144;-44
2022/07/31 11:17:56;;;;;;;13.30;9.98;;;21.20;99.90;;;;;;5061890;28;20448;-45
2022/07/31 11:20:24;;;;;;;13.85;10.27;;;21.10;99.90;;;;;;5055581;28;20056;-44
2022/07/31 11:22:56;;;;;;;13.93;11.45;;;21.10;99.90;;;;;;5055170;28;20452;-44
2022/07/31 11:25:23;;;;;;;13.95;11.30;;;21.00;99.90;;;;;;5041648;28;20040;-44
2022/07/31 11:27:50;;;;;;;22.20;12.75;;;21.00;99.90;;;;;;5045000;28;20072;-43
2022/07/31 11:30:17;;;;;;;12.20;10.13;;;21.00;99.90;;;;;;5045130;28;20041;-43
2022/07/31 11:32:48;;;;;;;14.13;11.75;;;21.00;99.90;;;;;;5041550;28;20119;-43
2022/07/31 11:35:31;;;;;;;18.88;12.88;;;21.00;99.90;;;;;;5048775;28;20476;-43
2022/07/31 11:37:58;;;;;;;14.18;11.82;;;21.00;99.90;;;;;;5060646;28;20075;-43
2022/07/31 11:40:25;;;;;;;19.85;13.73;;;20.90;99.90;;;;;;5053459;28;20387;-45
2022/07/31 11:42:54;;;;;;;16.95;13.43;;;20.80;99.90;;;;;;5048885;28;20431;-43
2022/07/31 11:45:24;;;;;;;20.50;14.45;;;20.70;99.90;;;;;;5052281;28;20126;-44
2022/07/31 11:47:51;;;;;;;21.02;14.68;;;20.60;99.90;;;;;;5052620;28;20451;-43
2022/07/31 11:50:18;;;;;;;17.55;14.07;;;20.50;99.90;;;;;;5067428;28;20048;-43
2022/07/31 11:52:47;;;;;;;17.25;15.45;;;20.50;99.90;;;;;;5052194;28;20152;-44
2022/07/31 11:55:14;;;;;;;18.98;14.95;;;20.50;99.90;;;;;;5045070;28;20144;-43
2022/07/31 11:57:41;;;;;;;20.52;16.63;;;20.40;99.90;;;;;;5052117;28;20091;-43
2022/07/31 12:00:09;;;;;;;18.60;15.70;;;20.40;99.90;;;;;;5045958;28;20476;-43
2022/07/31 12:02:40;;;;;;;17.38;15.48;;;20.40;99.90;;;;;;5048440;28;20080;-43
2022/07/31 12:05:08;;;;;;;20.98;17.45;;;20.40;99.90;;;;;;5038801;28;20128;-43
2022/07/31 12:07:35;;;;;;;21.40;17.60;;;20.40;99.90;;;;;;5051162;28;20091;-44
2022/07/31 12:10:03;;;;;;;22.15;17.08;;;20.40;99.90;;;;;;5051584;28;20107;-44
2022/07/31 12:12:30;;;;;;;23.95;19.17;;;20.40;99.90;;;;;;5064532;28;20041;-44
2022/07/31 12:14:57;;;;;;;24.05;19.42;;;20.40;99.90;;;;;;5056150;28;20404;-44
2022/07/31 12:17:24;;;;;;;21.23;18.13;;;20.40;99.90;;;;;;5049582;28;20136;-43
2022/07/31 12:19:51;;;;;;;22.23;19.25;;;20.40;99.90;;;;;;5039458;28;20119;-43
2022/07/31 12:22:18;;;;;;;22.67;20.05;;;20.40;99.90;;;;;;5068368;28;20193;-44
2022/07/31 12:24:46;;;;;;;28.08;21.15;;;20.40;99.90;;;;;;5052111;28;20063;-44
2022/07/31 12:27:16;;;;;;;25.60;21.77;;;20.40;99.90;;;;;;5051268;28;20428;-44
2022/07/31 12:29:42;;;;;;;26.80;22.88;;;20.50;99.90;;;;;;5051134;28;20123;-44
2022/07/31 12:32:09;;;;;;;28.02;22.58;;;20.50;99.90;;;;;;5056033;28;20095;-43
2022/07/31 12:34:37;;;;;;;29.27;22.40;;;20.50;99.90;;;;;;5066999;28;20083;-43
2022/07/31 12:37:05;;;;;;;29.02;23.42;;;20.50;99.90;;;;;;5064134;28;20053;-43
2022/07/31 12:39:35;;;;;;;27.17;24.25;;;20.60;99.90;;;;;;5054679;28;20447;-43
2022/07/31 12:42:02;;;;;;;27.23;22.73;;;20.60;99.90;;;;;;5036193;28;20469;-44
2022/07/31 12:44:30;;;;;;;29.55;23.00;;;20.60;99.90;;;;;;5052195;28;20127;-44
2022/07/31 12:46:57;;;;;;;27.83;24.20;;;20.60;99.90;;;;;;5047255;28;20049;-44
2022/07/31 12:49:25;;;;;;;31.02;25.20;;;20.60;99.90;;;;;;5062238;28;20480;-44